Lewistown, MT (59457)

4:23 PM MST on February 06, 2016 (GMT -0700)
3/4 mile S of Lewistown | | Change Station
CLOSE
Current Station
Personal Weather Station
Location: Lewistown, Mt
Elevation: 4189 ft
Nearby Weather Stations
Active Advisory: High Wind Warning

Elev 4189 ft 47.04 °N, 109.42 °W | Updated 1 second ago

Overcast
Overcast
35.6 °F
Feels Like 24 °F
N
25.0
Wind Variable Wind from SSW
Gusts 40.0 mph

Today
High -- | Low -- °F
--% Chance of Precip.
Yesterday
High -- | Low -- °F
Precip. -- in
Pressure 30.05 in
Visibility 10.0 miles
Clouds Overcast 10000 ft
Windchill 24 °F
Dew Point 20 °F
Humidity 53%
Rainfall 0.00 in
Snow Depth Not available.
7:36 AM 5:27 PM
Waning Crescent, 4% visible
METAR KLWT 062254Z AUTO 30027G36KT 10SM OVC100 04/M07 A3001 RMK AO2 PK WND 29037/2232 SLP174 T00391072
Pressure 30.05 in
Visibility 10.0 miles
Clouds Overcast 10000 ft
Windchill 24 °F
Dew Point 20 °F
Humidity 53%
Rainfall 0.00 in
Snow Depth Not available.
7:36 AM 5:27 PM
Waning Crescent, 4% visible
METAR KLWT 062254Z AUTO 30027G36KT 10SM OVC100 04/M07 A3001 RMK AO2 PK WND 29037/2232 SLP174 T00391072

10-Day Weather Forecast

Almanac

Astronomy

Feb. 06, 2016 Rise Set
Actual Time
Civil Twilight
Nautical Twilight
Astronomical Twilight
Moon
Length of Visible Light
Length of Day
Tomorrow will be .
, % of the Moon is Illuminated

Today's Extremes

State Highs State Lows

Community

WunderPhotos

Upload Photos

1,891,094 photos uploaded!

WunderBlog® & News

Nearby

Air Quality

  Air Quality AQ Index Pollutant
Not available.

Snow Depth

Station Depth Elevation

Earthquake Activity

City Distance Mag. Time & Date
Minimum magnitude displayed is 2.5.

Coastal Water Temperatures

Place Temperature

Stations

Nearby Weather Stations

Station Location Temp. Windchill Dew Point Humidity Wind Precip. Elev Updated Type
                   

Watches & Warnings

High Wind Warning
Issued: 2:38 PM MST Feb. 6, 2016 – National Weather Service

... High Wind Warning remains in effect until 5 PM MST this
afternoon...

* timing... southwest to west winds will remain strong through this
afternoon.

* Winds... southwest to west winds 30 to 40 mph with gusts to 70
mph.

* Impacts... strong winds may cause difficult driving conditions
for high profile vehicles.

Precautionary/preparedness actions...

A High Wind Warning means a hazardous high wind event is expected
or occurring. Strong winds endanger transportation and could
cause property damage.